createdAt,value
2022-09-12T08:41:01.052Z,100
2022-09-12T08:46:26.748Z,100
2022-09-12T12:20:46.579Z,100
2022-09-12T13:45:39.487Z,100
2022-09-12T13:51:08.485Z,99
2022-09-12T13:57:08.121Z,100
2022-09-12T14:02:36.842Z,100
2022-09-12T14:08:03.346Z,100
2022-09-12T14:13:51.229Z,98
2022-09-12T14:19:40.951Z,99
2022-09-12T14:25:03.361Z,94
2022-09-12T14:30:55.964Z,91
2022-09-12T14:36:16.217Z,94
2022-09-12T14:41:53.337Z,92
2022-09-12T14:47:25.834Z,94
2022-09-12T14:53:13.538Z,93
2022-09-12T14:58:59.375Z,86
2022-09-12T15:04:46.484Z,84
2022-09-12T15:10:02.608Z,79
2022-09-12T15:15:44.330Z,82
2022-09-12T15:21:21.678Z,82
2022-09-12T15:27:16.888Z,81
2022-09-12T15:32:57.219Z,84
2022-09-12T15:38:28.003Z,82
2022-09-12T15:44:02.520Z,86
2022-09-12T16:00:51.923Z,93
2022-09-12T17:07:57.701Z,100
2022-09-12T17:14:00.472Z,100
2022-09-12T17:19:35.090Z,100
2022-09-12T17:25:03.375Z,100
2022-09-12T17:30:43.361Z,100
2022-09-12T17:41:47.943Z,100
2022-09-12T17:47:23.818Z,100
2022-09-12T17:53:07.742Z,100
2022-09-12T18:03:54.633Z,100
2022-09-12T18:43:20.372Z,100
2022-09-12T19:22:08.413Z,100
2022-09-12T19:27:50.167Z,100
2022-09-12T19:33:32.096Z,100
2022-09-12T19:38:58.545Z,100
2022-09-12T19:44:36.119Z,100
2022-09-12T19:50:08.577Z,100
2022-09-12T19:55:37.278Z,100
2022-09-12T20:01:16.034Z,100
2022-09-12T20:06:56.832Z,100
2022-09-12T20:23:51.105Z,100
2022-09-12T21:47:36.026Z,100
2022-09-12T21:58:49.160Z,100
2022-09-12T22:09:47.845Z,100
2022-09-12T22:15:41.333Z,100
2022-09-12T22:48:42.335Z,100
2022-09-12T22:54:17.833Z,100
2022-09-12T23:00:10.555Z,100
2022-09-12T23:16:44.383Z,100
2022-09-12T23:22:20.643Z,100
2022-09-12T23:28:04.770Z,100
2022-09-12T23:39:14.139Z,100
2022-09-12T23:44:47.022Z,100
2022-09-12T23:50:29.477Z,100
